Time;durP1;ratioP1;P1;durP2;ratioP2;P2;SDS_P1;SDS_P2;PMS_P1;PMS_P2;Temp;Humidity;BMP_temperature;BMP_pressure;BME280_temperature;BME280_humidity;BME280_pressure;Samples;Min_cycle;Max_cycle;Signal;HPM_P1;HPM_P2
2021/01/11 00:00:22;;;;;;;13.93;10.13;;;-1.80;99.90;;;;;;4929409;28;20483;-79
2021/01/11 00:02:48;;;;;;;12.88;9.45;;;-1.80;99.90;;;;;;4921420;29;20417;-76
2021/01/11 00:05:14;;;;;;;13.02;9.52;;;-1.80;99.90;;;;;;4897014;29;20755;-76
2021/01/11 00:07:41;;;;;;;14.82;10.30;;;-1.80;99.90;;;;;;4935118;28;20571;-78
2021/01/11 00:10:10;;;;;;;14.60;10.50;;;-1.80;99.90;;;;;;4937890;29;20481;-77
2021/01/11 00:12:39;;;;;;;12.82;10.02;;;-1.80;99.90;;;;;;4922157;28;20413;-76
2021/01/11 00:15:08;;;;;;;12.55;9.60;;;-1.80;99.90;;;;;;4917513;29;20412;-77
2021/01/11 00:17:34;;;;;;;13.82;9.95;;;-1.80;99.90;;;;;;4936619;29;20419;-77
2021/01/11 00:20:00;;;;;;;15.67;10.23;;;-1.80;99.90;;;;;;4911969;29;20417;-77
2021/01/11 00:22:25;;;;;;;12.83;9.97;;;-1.70;99.90;;;;;;4930761;29;20490;-77
2021/01/11 00:24:51;;;;;;;13.23;9.50;;;-1.70;99.90;;;;;;4913902;29;20470;-79
2021/01/11 00:27:17;;;;;;;12.68;10.07;;;-1.70;99.90;;;;;;4929673;29;20474;-76
2021/01/11 00:29:42;;;;;;;14.25;10.35;;;-1.70;99.90;;;;;;4916192;29;20826;-78
2021/01/11 00:32:08;;;;;;;14.73;10.60;;;-1.70;99.90;;;;;;4914434;29;20511;-75
2021/01/11 00:34:34;;;;;;;14.17;9.20;;;-1.70;99.90;;;;;;4924367;29;20418;-76
2021/01/11 00:36:59;;;;;;;12.43;9.85;;;-1.70;99.90;;;;;;4953750;28;20407;-78
2021/01/11 00:39:26;;;;;;;13.17;9.80;;;-1.70;99.90;;;;;;4931272;29;20435;-78
2021/01/11 00:42:01;;;;;;;14.37;10.33;;;-1.70;99.90;;;;;;4932900;29;20824;-76
2021/01/11 00:44:28;;;;;;;15.38;11.02;;;-1.70;99.90;;;;;;4894758;29;20440;-76
2021/01/11 00:46:58;;;;;;;12.60;10.40;;;-1.70;99.90;;;;;;4927187;28;20530;-78
2021/01/11 00:49:24;;;;;;;13.25;9.60;;;-1.70;99.90;;;;;;4928601;28;20415;-77
2021/01/11 00:51:50;;;;;;;13.48;10.02;;;-1.70;99.90;;;;;;4949153;28;20495;-76
2021/01/11 00:54:18;;;;;;;14.52;9.80;;;-1.70;99.90;;;;;;4935448;29;20490;-78
2021/01/11 00:56:45;;;;;;;14.43;9.18;;;-1.70;99.90;;;;;;4948816;28;20399;-76
2021/01/11 00:59:25;;;;;;;14.27;10.13;;;-1.70;99.90;;;;;;4934580;28;20410;-75
2021/01/11 01:01:52;;;;;;;12.25;9.70;;;-1.70;99.90;;;;;;4899458;28;20478;-78
2021/01/11 01:04:22;;;;;;;14.23;10.63;;;-1.70;99.90;;;;;;4946065;28;20391;-78
2021/01/11 01:06:48;;;;;;;14.23;9.97;;;-1.60;99.90;;;;;;4930197;29;20424;-77
2021/01/11 01:09:13;;;;;;;16.13;10.73;;;-1.70;99.90;;;;;;4914359;29;20401;-77
2021/01/11 01:11:40;;;;;;;15.82;9.95;;;-1.70;99.90;;;;;;4938316;28;20934;-79
2021/01/11 01:14:05;;;;;;;14.90;10.82;;;-1.70;99.90;;;;;;4921155;28;20424;-83
2021/01/11 01:16:31;;;;;;;13.77;9.65;;;-1.70;99.90;;;;;;4928499;29;20388;-80
2021/01/11 01:18:57;;;;;;;14.13;9.65;;;-1.70;99.90;;;;;;4935838;28;20395;-80
2021/01/11 01:21:23;;;;;;;13.10;9.98;;;-1.70;99.90;;;;;;4958908;28;20934;-80
2021/01/11 01:23:48;;;;;;;14.30;9.90;;;-1.60;99.90;;;;;;4953592;28;20410;-79
2021/01/11 01:26:14;;;;;;;14.27;10.37;;;-1.70;99.90;;;;;;4919044;29;22169;-77
2021/01/11 01:28:40;;;;;;;10.32;9.10;;;-1.60;99.90;;;;;;4934804;29;20407;-78
2021/01/11 01:31:05;;;;;;;13.95;10.13;;;-1.60;99.90;;;;;;4930676;28;20404;-76
2021/01/11 01:33:31;;;;;;;14.23;10.30;;;-1.70;99.90;;;;;;4943962;28;20508;-76
2021/01/11 01:35:57;;;;;;;13.77;10.68;;;-1.70;99.90;;;;;;4899123;29;20424;-77
2021/01/11 01:38:22;;;;;;;14.63;9.88;;;-1.70;99.90;;;;;;4934460;28;20405;-77
2021/01/11 01:40:48;;;;;;;13.70;10.68;;;-1.70;99.90;;;;;;4934093;29;20422;-77
2021/01/11 01:43:14;;;;;;;14.07;10.63;;;-1.80;99.90;;;;;;4946908;28;20406;-76
2021/01/11 01:45:40;;;;;;;10.63;8.93;;;-1.80;99.90;;;;;;4926107;28;20469;-76
2021/01/11 01:48:06;;;;;;;15.48;9.70;;;-1.80;99.90;;;;;;4927818;28;20423;-76
2021/01/11 01:50:31;;;;;;;14.13;9.57;;;-1.80;99.90;;;;;;4908577;28;20409;-77
2021/01/11 01:52:57;;;;;;;12.10;9.65;;;-1.70;99.90;;;;;;4939653;28;21077;-80
2021/01/11 01:55:23;;;;;;;12.37;9.50;;;-1.80;99.90;;;;;;4945452;28;20399;-76
2021/01/11 01:57:49;;;;;;;14.07;9.57;;;-1.80;99.90;;;;;;4937813;28;20412;-76
2021/01/11 02:00:16;;;;;;;12.77;9.55;;;-1.80;99.90;;;;;;4946309;28;20432;-76
2021/01/11 02:02:42;;;;;;;12.60;8.82;;;-1.80;99.90;;;;;;4947357;29;20402;-80
2021/01/11 02:05:08;;;;;;;13.03;9.57;;;-1.80;99.90;;;;;;4946497;28;20400;-79
2021/01/11 02:07:55;;;;;;;12.50;9.30;;;-1.80;99.90;;;;;;4915765;29;20411;-76
2021/01/11 02:10:44;;;;;;;11.50;9.00;;;-1.80;99.90;;;;;;4931257;29;20408;-75
2021/01/11 02:13:27;;;;;;;13.75;8.93;;;-1.80;99.90;;;;;;4938299;28;20402;-77
2021/01/11 02:16:01;;;;;;;13.93;9.52;;;-1.90;99.90;;;;;;4929488;28;20394;-76
2021/01/11 02:18:43;;;;;;;13.30;9.63;;;-1.80;99.90;;;;;;4931650;29;20508;-76
2021/01/11 02:21:40;;;;;;;11.80;8.57;;;-1.80;99.90;;;;;;4927351;29;20406;-77
2021/01/11 02:24:25;;;;;;;12.32;9.45;;;-1.80;99.90;;;;;;4900525;28;20451;-77
2021/01/11 02:27:11;;;;;;;12.02;9.38;;;-1.80;99.90;;;;;;4926898;29;20509;-80
2021/01/11 02:30:11;;;;;;;11.75;8.68;;;-1.80;99.90;;;;;;4911174;29;20436;-76
2021/01/11 02:32:45;;;;;;;11.18;8.82;;;-1.80;99.90;;;;;;4941869;28;20532;-77
2021/01/11 02:35:11;;;;;;;14.50;9.23;;;-1.90;99.90;;;;;;4931881;28;20944;-76
2021/01/11 02:37:37;;;;;;;12.38;9.02;;;-1.90;99.90;;;;;;4928002;28;20409;-79
2021/01/11 02:40:04;;;;;;;14.30;8.90;;;-1.90;99.90;;;;;;4937535;28;20505;-77
2021/01/11 02:42:30;;;;;;;10.80;8.90;;;-2.00;99.90;;;;;;4952179;28;20927;-81
2021/01/11 02:44:56;;;;;;;11.47;9.20;;;-1.90;99.90;;;;;;4950789;28;20407;-75
2021/01/11 02:47:25;;;;;;;14.18;8.88;;;-2.00;99.90;;;;;;4942109;28;20452;-76
2021/01/11 02:49:52;;;;;;;12.13;8.20;;;-2.00;99.90;;;;;;4924095;28;20417;-78
2021/01/11 02:52:34;;;;;;;14.45;9.48;;;-2.00;99.90;;;;;;4952675;28;20484;-76
2021/01/11 02:55:05;;;;;;;12.30;8.63;;;-2.00;99.90;;;;;;4917252;28;20400;-76
2021/01/11 02:57:58;;;;;;;11.25;8.35;;;-2.10;99.90;;;;;;4942262;28;20409;-77
2021/01/11 03:00:24;;;;;;;11.30;8.50;;;-2.10;99.90;;;;;;4943311;28;20467;-76
2021/01/11 03:02:50;;;;;;;11.13;8.60;;;-2.10;99.90;;;;;;4930025;28;20543;-77
2021/01/11 03:05:15;;;;;;;13.57;9.20;;;-2.10;99.90;;;;;;4927356;29;20417;-78
2021/01/11 03:07:57;;;;;;;11.65;8.32;;;-2.10;99.90;;;;;;4930272;29;20525;-82
2021/01/11 03:10:23;;;;;;;11.50;8.75;;;-2.10;99.90;;;;;;4914796;29;20623;-79
2021/01/11 03:12:48;;;;;;;10.97;8.17;;;-2.10;99.90;;;;;;4929402;28;20436;-81
2021/01/11 03:15:15;;;;;;;10.87;8.37;;;-2.20;99.90;;;;;;4937263;28;20412;-79
2021/01/11 03:17:42;;;;;;;13.38;9.38;;;-2.20;99.90;;;;;;4925758;29;20428;-78
2021/01/11 03:20:11;;;;;;;11.27;8.53;;;-2.20;99.90;;;;;;4934204;28;20563;-79
2021/01/11 03:22:37;;;;;;;11.77;8.48;;;-2.20;99.90;;;;;;4945210;28;20411;-77
2021/01/11 03:25:03;;;;;;;11.57;9.02;;;-2.20;99.90;;;;;;4945252;28;20434;-77
2021/01/11 03:27:29;;;;;;;11.95;8.65;;;-2.20;99.90;;;;;;4929757;29;20423;-76
2021/01/11 03:29:55;;;;;;;11.37;8.90;;;-2.20;99.90;;;;;;4928731;29;20528;-76
2021/01/11 03:32:21;;;;;;;9.98;8.25;;;-2.20;99.90;;;;;;4910978;29;20423;-76
2021/01/11 03:34:46;;;;;;;11.95;8.63;;;-2.20;99.90;;;;;;4943133;29;20409;-77
2021/01/11 03:37:12;;;;;;;10.37;8.10;;;-2.30;99.90;;;;;;4951051;28;20499;-77
2021/01/11 03:39:38;;;;;;;12.30;9.40;;;-2.30;99.90;;;;;;4945691;29;21213;-77
2021/01/11 03:42:04;;;;;;;12.43;8.77;;;-2.30;99.90;;;;;;4929172;29;20437;-77
2021/01/11 03:44:29;;;;;;;11.38;8.50;;;-2.30;99.90;;;;;;4950639;28;20407;-78
2021/01/11 03:46:55;;;;;;;10.80;8.50;;;-2.30;99.90;;;;;;4946591;28;20423;-80
2021/01/11 03:49:21;;;;;;;13.00;8.53;;;-2.30;99.90;;;;;;4920948;29;20425;-77
2021/01/11 03:51:47;;;;;;;11.32;8.38;;;-2.30;99.90;;;;;;4943361;28;20398;-77
2021/01/11 03:54:13;;;;;;;12.73;8.03;;;-2.30;99.90;;;;;;4913627;28;20404;-78
2021/01/11 03:56:38;;;;;;;11.02;8.25;;;-2.30;99.90;;;;;;4922562;29;21165;-78
2021/01/11 03:59:04;;;;;;;10.48;7.75;;;-2.10;99.90;;;;;;4931586;29;20399;-76
2021/01/11 04:01:36;;;;;;;11.63;8.70;;;-2.30;99.90;;;;;;4933075;28;20393;-76
2021/01/11 04:04:02;;;;;;;9.60;7.85;;;-2.30;99.90;;;;;;4942702;29;20412;-77
2021/01/11 04:06:27;;;;;;;11.80;9.05;;;-2.30;99.90;;;;;;4929295;29;21059;-80
2021/01/11 04:08:53;;;;;;;10.23;8.50;;;-2.30;99.90;;;;;;4935236;28;20873;-77
2021/01/11 04:11:21;;;;;;;11.90;8.93;;;-2.30;99.90;;;;;;4929193;29;20412;-77
2021/01/11 04:13:47;;;;;;;12.15;8.52;;;-2.20;99.90;;;;;;4934957;28;20404;-77
2021/01/11 04:16:14;;;;;;;11.27;8.50;;;-2.30;99.90;;;;;;4947900;28;20406;-77
2021/01/11 04:18:40;;;;;;;10.27;7.90;;;-2.30;99.90;;;;;;4952964;28;20759;-79
2021/01/11 04:21:09;;;;;;;10.03;8.13;;;-2.20;99.90;;;;;;4927260;28;20418;-77
2021/01/11 04:23:34;;;;;;;10.20;7.70;;;-2.20;99.90;;;;;;4938897;29;20408;-78
2021/01/11 04:26:00;;;;;;;11.70;8.40;;;-2.20;99.90;;;;;;4916420;29;20405;-77
2021/01/11 04:28:26;;;;;;;10.38;8.00;;;-2.20;99.90;;;;;;4923730;29;20500;-77
2021/01/11 04:30:53;;;;;;;11.60;7.97;;;-2.20;99.90;;;;;;4946861;28;20412;-81
2021/01/11 04:33:19;;;;;;;11.85;8.50;;;-2.20;99.90;;;;;;4932074;28;20492;-77
2021/01/11 04:35:45;;;;;;;10.32;8.20;;;-2.10;99.90;;;;;;4931532;29;21009;-76
2021/01/11 04:38:10;;;;;;;10.88;8.23;;;-2.10;99.90;;;;;;4943032;28;20404;-77
2021/01/11 04:40:36;;;;;;;13.80;8.63;;;-2.10;99.90;;;;;;4914461;29;20405;-79
2021/01/11 04:43:02;;;;;;;9.63;8.10;;;-2.00;99.90;;;;;;4927993;28;20423;-77
2021/01/11 04:45:27;;;;;;;11.32;8.50;;;-2.00;99.90;;;;;;4930410;29;20408;-79
2021/01/11 04:47:54;;;;;;;10.50;8.00;;;-2.00;99.90;;;;;;4945956;28;20419;-77
2021/01/11 04:50:20;;;;;;;11.83;8.23;;;-2.00;99.90;;;;;;4943530;28;20528;-78
2021/01/11 04:52:46;;;;;;;12.23;8.37;;;-1.90;99.90;;;;;;4957873;28;20851;-76
2021/01/11 04:55:13;;;;;;;10.20;7.87;;;-1.90;99.90;;;;;;4933279;28;20478;-76
2021/01/11 04:57:42;;;;;;;9.35;7.60;;;-1.90;99.90;;;;;;4939611;29;20911;-76
2021/01/11 05:00:10;;;;;;;10.20;7.10;;;-1.90;99.90;;;;;;4930128;28;20797;-76
2021/01/11 05:02:43;;;;;;;9.65;7.80;;;-1.80;99.90;;;;;;4940467;28;20490;-78
2021/01/11 05:05:09;;;;;;;9.80;7.47;;;-1.80;99.90;;;;;;4919567;29;20483;-82
2021/01/11 05:07:35;;;;;;;9.95;7.53;;;-1.80;99.90;;;;;;4948602;29;20961;-77
2021/01/11 05:10:01;;;;;;;9.23;7.57;;;-1.70;99.90;;;;;;4943522;28;20407;-80
2021/01/11 05:12:26;;;;;;;8.90;7.70;;;-1.70;99.90;;;;;;4948817;28;20403;-78
2021/01/11 05:15:17;;;;;;;11.32;8.90;;;-1.70;99.90;;;;;;4929586;28;20412;-80
2021/01/11 05:17:45;;;;;;;13.27;9.00;;;-1.70;99.90;;;;;;4933627;28;20548;-76
2021/01/11 05:20:15;;;;;;;19.67;12.30;;;-1.70;99.90;;;;;;4911180;28;20476;-77
2021/01/11 05:22:47;;;;;;;13.30;8.50;;;-1.70;99.90;;;;;;4927778;28;20408;-77
2021/01/11 05:25:16;;;;;;;12.77;8.15;;;-1.70;99.90;;;;;;4929659;28;20411;-78
2021/01/11 05:27:42;;;;;;;10.50;7.00;;;-1.60;99.90;;;;;;4930271;28;20426;-77
2021/01/11 05:30:29;;;;;;;9.60;7.72;;;-1.60;99.90;;;;;;4927610;29;20416;-77
2021/01/11 05:32:55;;;;;;;9.60;7.43;;;-1.60;99.90;;;;;;4928555;29;20438;-75
2021/01/11 05:35:22;;;;;;;9.05;7.20;;;-1.60;99.90;;;;;;4939539;28;20472;-77
2021/01/11 05:37:47;;;;;;;10.63;7.22;;;-1.60;99.90;;;;;;4946780;28;20399;-75
2021/01/11 05:40:17;;;;;;;9.77;7.37;;;-1.60;99.90;;;;;;4928915;29;20968;-76
2021/01/11 05:42:47;;;;;;;10.73;7.85;;;-1.60;99.90;;;;;;4946368;28;20435;-75
2021/01/11 05:45:19;;;;;;;12.27;7.40;;;-1.60;99.90;;;;;;4927606;29;20485;-76
2021/01/11 05:48:04;;;;;;;10.15;7.20;;;-1.60;99.90;;;;;;4913746;29;20478;-77
2021/01/11 05:50:29;;;;;;;9.43;7.55;;;-1.60;99.90;;;;;;4931275;28;20416;-77
2021/01/11 05:52:55;;;;;;;8.67;7.13;;;-1.60;99.90;;;;;;4932225;28;20414;-77
2021/01/11 05:55:24;;;;;;;9.63;6.90;;;-1.60;99.90;;;;;;4916579;28;20424;-77
2021/01/11 05:58:03;;;;;;;10.85;7.53;;;-1.50;99.90;;;;;;4916352;29;20411;-78
2021/01/11 06:00:35;;;;;;;8.80;7.13;;;-1.50;99.90;;;;;;4945432;28;20399;-76
2021/01/11 06:03:02;;;;;;;7.85;6.57;;;-1.50;99.90;;;;;;4946681;28;20404;-75
2021/01/11 06:05:29;;;;;;;11.63;6.95;;;-1.50;99.90;;;;;;4928796;28;20528;-75
2021/01/11 06:07:54;;;;;;;9.18;6.53;;;-1.40;99.90;;;;;;4922829;29;20428;-75
2021/01/11 06:10:21;;;;;;;10.50;7.30;;;-1.40;99.90;;;;;;4933606;28;20400;-76
2021/01/11 06:12:47;;;;;;;8.57;6.43;;;-1.40;99.90;;;;;;4930321;28;20930;-75
2021/01/11 06:15:15;;;;;;;8.18;6.40;;;-1.40;99.90;;;;;;4916520;29;20411;-75
2021/01/11 06:17:41;;;;;;;8.93;6.43;;;-1.40;99.90;;;;;;4943098;28;20495;-75
2021/01/11 06:20:08;;;;;;;8.10;5.85;;;-1.40;99.90;;;;;;4943563;29;20411;-78
2021/01/11 06:23:03;;;;;;;8.23;6.00;;;-1.40;99.90;;;;;;4943750;28;20943;-75
2021/01/11 06:25:28;;;;;;;7.53;6.18;;;-1.30;99.90;;;;;;4925047;28;21051;-76
2021/01/11 06:27:58;;;;;;;6.80;5.87;;;-1.30;99.90;;;;;;4941310;28;20449;-76
2021/01/11 06:30:33;;;;;;;6.80;6.00;;;-1.30;99.90;;;;;;4927632;28;20502;-78
2021/01/11 06:33:13;;;;;;;7.05;6.05;;;-1.30;99.90;;;;;;4923411;28;20987;-77
2021/01/11 06:35:48;;;;;;;7.20;5.68;;;-1.30;99.90;;;;;;4952648;28;20972;-75
2021/01/11 06:38:34;;;;;;;7.93;5.90;;;-1.30;99.90;;;;;;4917925;28;20499;-75
2021/01/11 06:41:03;;;;;;;7.70;5.97;;;-1.30;99.90;;;;;;4915102;28;20780;-74
2021/01/11 06:43:38;;;;;;;7.20;5.72;;;-1.30;99.90;;;;;;4929215;28;20412;-74
2021/01/11 06:46:04;;;;;;;8.73;5.95;;;-1.30;99.90;;;;;;4929278;29;20415;-76
2021/01/11 06:48:32;;;;;;;8.23;6.20;;;-1.30;99.90;;;;;;4943041;28;20577;-75
2021/01/11 06:50:57;;;;;;;8.50;6.00;;;-1.30;99.90;;;;;;4920716;29;20434;-75
2021/01/11 06:53:30;;;;;;;5.75;5.25;;;-1.20;99.90;;;;;;4943869;28;20502;-75
2021/01/11 06:56:09;;;;;;;8.10;5.45;;;-1.20;99.90;;;;;;4922931;29;20870;-75
2021/01/11 06:58:38;;;;;;;7.32;5.60;;;-1.30;99.90;;;;;;4943855;28;20408;-75
2021/01/11 07:01:09;;;;;;;7.18;5.28;;;-1.20;99.90;;;;;;4943496;28;20408;-77
2021/01/11 07:03:47;;;;;;;6.15;5.35;;;-1.20;99.90;;;;;;4944545;28;20424;-74
2021/01/11 07:06:40;;;;;;;7.07;5.30;;;-1.20;99.90;;;;;;4924102;29;20420;-77
2021/01/11 07:09:09;;;;;;;7.85;5.13;;;-1.20;99.90;;;;;;4928343;29;20542;-75
2021/01/11 07:11:39;;;;;;;6.10;4.65;;;-1.20;99.90;;;;;;4928387;29;20406;-77
2021/01/11 07:14:05;;;;;;;5.80;4.97;;;-1.20;99.90;;;;;;4942385;28;20392;-75
2021/01/11 07:16:46;;;;;;;6.32;5.05;;;-1.20;99.90;;;;;;4934016;28;20915;-74
2021/01/11 07:19:13;;;;;;;7.00;4.80;;;-1.20;99.90;;;;;;4923545;29;20540;-77
2021/01/11 07:21:38;;;;;;;6.13;5.07;;;-1.20;99.90;;;;;;4946128;28;20395;-75
2021/01/11 07:24:05;;;;;;;7.90;5.32;;;-1.20;99.90;;;;;;4928836;29;20431;-75
2021/01/11 07:26:31;;;;;;;8.10;5.00;;;-1.10;99.90;;;;;;4937150;28;20904;-75
2021/01/11 07:28:59;;;;;;;6.88;5.43;;;-1.10;99.90;;;;;;4929113;28;20431;-75
2021/01/11 07:31:30;;;;;;;6.22;5.60;;;-1.10;99.90;;;;;;4934850;28;20761;-76
2021/01/11 07:34:03;;;;;;;6.22;5.00;;;-1.10;99.90;;;;;;4948305;28;20930;-77
2021/01/11 07:36:39;;;;;;;6.80;5.05;;;-1.10;99.90;;;;;;4931052;28;20420;-77
2021/01/11 07:39:07;;;;;;;6.32;5.00;;;-1.10;99.90;;;;;;4896021;29;20413;-77
2021/01/11 07:41:32;;;;;;;7.57;5.13;;;-1.10;99.90;;;;;;4915208;28;20397;-76
2021/01/11 07:44:17;;;;;;;6.83;5.63;;;-1.10;99.90;;;;;;4912625;28;20452;-77
2021/01/11 07:46:44;;;;;;;5.63;4.80;;;-1.10;99.90;;;;;;4927590;29;20405;-77
2021/01/11 07:49:11;;;;;;;7.35;5.38;;;-1.00;99.90;;;;;;4915599;29;20404;-78
2021/01/11 07:51:37;;;;;;;5.65;4.75;;;-0.90;99.90;;;;;;4936011;28;20408;-78
2021/01/11 07:54:07;;;;;;;6.55;4.82;;;-0.90;99.90;;;;;;4923327;28;20415;-77
2021/01/11 07:56:33;;;;;;;5.88;5.00;;;-0.90;99.90;;;;;;4934445;29;20395;-77
2021/01/11 07:58:58;;;;;;;8.25;5.28;;;-0.90;99.90;;;;;;4930131;29;20431;-77
2021/01/11 08:01:24;;;;;;;5.43;4.53;;;-0.90;99.90;;;;;;4945359;29;20888;-77
2021/01/11 08:03:54;;;;;;;6.55;4.78;;;-0.80;99.90;;;;;;4913341;29;20407;-77
2021/01/11 08:06:20;;;;;;;6.93;5.30;;;-0.80;99.90;;;;;;4929739;29;20406;-77
2021/01/11 08:08:46;;;;;;;6.63;5.13;;;-0.80;99.90;;;;;;4930075;28;20411;-77
2021/01/11 08:11:11;;;;;;;6.55;4.85;;;-0.80;99.90;;;;;;4932961;28;20423;-77
2021/01/11 08:13:37;;;;;;;5.63;4.90;;;-0.80;99.90;;;;;;4929019;29;20411;-77
2021/01/11 08:16:13;;;;;;;8.27;6.47;;;-0.80;99.90;;;;;;4925780;29;20751;-77
2021/01/11 08:18:39;;;;;;;6.22;4.97;;;-0.70;99.90;;;;;;4927188;29;20486;-77
2021/01/11 08:21:12;;;;;;;5.63;5.03;;;-0.70;99.90;;;;;;4919091;29;20393;-78
2021/01/11 08:23:38;;;;;;;6.20;4.70;;;-0.70;99.90;;;;;;4944679;29;20968;-78
2021/01/11 08:26:08;;;;;;;7.57;6.07;;;-0.60;99.90;;;;;;4913931;29;20411;-77
2021/01/11 08:28:34;;;;;;;6.90;5.25;;;-0.60;99.90;;;;;;4927642;28;20421;-82
2021/01/11 08:31:00;;;;;;;7.40;6.00;;;-0.60;99.90;;;;;;4938836;28;20408;-77
2021/01/11 08:33:28;;;;;;;6.47;5.53;;;-0.60;99.90;;;;;;4944307;28;20467;-78
2021/01/11 08:36:14;;;;;;;7.75;5.95;;;-0.60;99.90;;;;;;4940502;28;20402;-78
2021/01/11 08:39:03;;;;;;;8.38;5.72;;;-0.50;99.90;;;;;;4928893;29;20435;-80
2021/01/11 08:41:29;;;;;;;7.13;5.90;;;-0.50;99.90;;;;;;4929550;29;20392;-78
2021/01/11 08:43:55;;;;;;;6.85;5.25;;;-0.50;99.90;;;;;;4928350;29;20411;-77
2021/01/11 08:46:21;;;;;;;6.85;5.05;;;-0.40;99.90;;;;;;4942961;28;20407;-77
2021/01/11 08:48:46;;;;;;;7.03;5.50;;;-0.30;99.90;;;;;;4931207;29;20416;-78
2021/01/11 08:51:24;;;;;;;6.00;4.93;;;-0.30;99.90;;;;;;4942031;29;20400;-77
2021/01/11 08:53:49;;;;;;;5.40;4.72;;;-0.30;99.90;;;;;;4935872;28;20422;-76
2021/01/11 08:56:17;;;;;;;7.87;5.30;;;-0.20;99.90;;;;;;4942194;28;20403;-78
2021/01/11 08:58:47;;;;;;;7.05;5.32;;;-0.10;99.90;;;;;;4932484;28;20761;-81
2021/01/11 09:01:16;;;;;;;5.63;4.93;;;-0.10;99.90;;;;;;4929564;29;20777;-77
2021/01/11 09:03:53;;;;;;;6.13;5.20;;;0.00;99.90;;;;;;4931858;28;20416;-79
2021/01/11 09:06:37;;;;;;;5.35;4.78;;;0.00;99.90;;;;;;4915232;29;20403;-77
2021/01/11 09:09:13;;;;;;;7.95;6.00;;;0.00;99.90;;;;;;4931513;29;20482;-80
2021/01/11 09:11:40;;;;;;;7.72;6.00;;;0.00;99.90;;;;;;4945778;28;20418;-77
2021/01/11 09:14:10;;;;;;;5.47;4.97;;;0.10;99.90;;;;;;4932636;29;20452;-77
2021/01/11 09:16:36;;;;;;;7.57;4.43;;;0.10;99.90;;;;;;4932142;28;20408;-77
2021/01/11 09:19:12;;;;;;;6.60;5.22;;;0.10;99.90;;;;;;4946224;28;20939;-78
2021/01/11 09:21:41;;;;;;;5.78;4.65;;;0.10;99.90;;;;;;4930619;29;20906;-79
2021/01/11 09:24:16;;;;;;;5.63;4.88;;;0.10;99.90;;;;;;4903245;29;21048;-74
2021/01/11 09:26:42;;;;;;;6.43;5.07;;;0.20;99.90;;;;;;4907387;29;21148;-78
2021/01/11 09:29:08;;;;;;;7.82;5.70;;;0.20;99.90;;;;;;4912963;28;20414;-75
2021/01/11 09:31:34;;;;;;;6.28;4.68;;;0.30;99.90;;;;;;4929966;28;20907;-74
2021/01/11 09:34:00;;;;;;;5.53;4.70;;;0.30;99.90;;;;;;4946216;28;20407;-74
2021/01/11 09:36:36;;;;;;;6.33;5.43;;;0.40;99.90;;;;;;4938791;28;20408;-79
2021/01/11 09:39:03;;;;;;;5.05;4.38;;;0.40;99.90;;;;;;4945203;28;20412;-74
2021/01/11 09:41:29;;;;;;;6.32;4.60;;;0.40;99.90;;;;;;4925107;29;20414;-78
2021/01/11 09:43:54;;;;;;;5.57;4.40;;;0.40;99.90;;;;;;4925632;29;20412;-74
2021/01/11 09:46:20;;;;;;;6.77;4.20;;;0.40;99.90;;;;;;4934788;28;20407;-75
2021/01/11 09:48:46;;;;;;;5.70;4.22;;;0.40;99.90;;;;;;4930483;29;20403;-73
2021/01/11 09:51:12;;;;;;;5.47;4.10;;;0.40;99.90;;;;;;4918369;29;20462;-73
2021/01/11 09:53:37;;;;;;;5.33;4.40;;;0.40;99.90;;;;;;4919682;29;20492;-74
2021/01/11 09:56:03;;;;;;;4.45;3.92;;;0.40;99.90;;;;;;4916121;29;20519;-74
2021/01/11 09:58:29;;;;;;;6.03;3.97;;;0.50;99.90;;;;;;4897583;29;20411;-74
2021/01/11 10:00:55;;;;;;;4.50;3.90;;;0.60;99.90;;;;;;4913266;28;20854;-74
2021/01/11 10:03:23;;;;;;;4.17;3.70;;;0.60;99.90;;;;;;4948415;28;20450;-75
2021/01/11 10:05:56;;;;;;;4.38;3.78;;;0.60;99.90;;;;;;4946642;28;20455;-74
2021/01/11 10:08:21;;;;;;;4.75;3.80;;;0.60;99.90;;;;;;4929329;29;20507;-74
2021/01/11 10:10:47;;;;;;;5.73;3.93;;;0.60;99.90;;;;;;4904071;28;20461;-74
2021/01/11 10:13:13;;;;;;;4.22;3.83;;;0.70;99.90;;;;;;4922696;28;20411;-74
2021/01/11 10:15:38;;;;;;;4.13;3.58;;;0.70;99.90;;;;;;4928241;28;20398;-76
2021/01/11 10:18:04;;;;;;;5.50;3.90;;;0.60;99.90;;;;;;4928841;28;20465;-73
2021/01/11 10:20:30;;;;;;;4.88;3.92;;;0.70;99.90;;;;;;4937449;28;20417;-74
2021/01/11 10:22:55;;;;;;;4.38;3.80;;;0.70;99.90;;;;;;4946554;28;20407;-74
2021/01/11 10:25:22;;;;;;;5.27;4.00;;;0.70;99.90;;;;;;4928777;29;20408;-74
2021/01/11 10:27:48;;;;;;;4.70;3.90;;;0.70;99.90;;;;;;4927968;29;20486;-74
2021/01/11 10:30:14;;;;;;;4.38;3.97;;;0.80;99.90;;;;;;4943308;28;20825;-74
2021/01/11 10:32:40;;;;;;;5.47;3.95;;;0.80;99.90;;;;;;4930689;29;20448;-73
2021/01/11 10:35:06;;;;;;;4.28;3.75;;;0.80;99.90;;;;;;4927573;29;20504;-73
2021/01/11 10:37:33;;;;;;;5.33;4.53;;;0.80;99.90;;;;;;4933423;29;21062;-73
2021/01/11 10:39:58;;;;;;;5.07;4.00;;;0.80;99.90;;;;;;4907857;29;20420;-75
2021/01/11 10:42:27;;;;;;;3.70;3.40;;;0.90;99.90;;;;;;4909128;29;20399;-76
2021/01/11 10:44:53;;;;;;;5.78;4.22;;;0.90;99.90;;;;;;4927088;29;20406;-75
2021/01/11 10:47:19;;;;;;;6.47;4.30;;;0.90;99.90;;;;;;4919569;29;20423;-76
2021/01/11 10:49:45;;;;;;;4.97;3.67;;;1.00;99.90;;;;;;4927704;29;20743;-73
2021/01/11 10:52:11;;;;;;;7.03;3.95;;;0.90;99.90;;;;;;4913611;29;20404;-78
2021/01/11 10:54:36;;;;;;;3.83;3.40;;;0.90;99.90;;;;;;4914457;29;20391;-73
2021/01/11 10:57:02;;;;;;;4.13;3.72;;;1.00;99.90;;;;;;4931079;28;20424;-74
2021/01/11 10:59:29;;;;;;;4.30;3.60;;;0.90;99.90;;;;;;4944039;28;20434;-73
2021/01/11 11:01:55;;;;;;;4.15;3.53;;;1.00;99.90;;;;;;4911538;29;20391;-74
2021/01/11 11:04:23;;;;;;;3.73;3.30;;;1.00;99.90;;;;;;4905213;29;20411;-76
2021/01/11 11:06:49;;;;;;;4.70;3.70;;;0.90;99.90;;;;;;4924462;28;20413;-75
2021/01/11 11:09:14;;;;;;;4.40;3.25;;;1.00;99.90;;;;;;4902424;29;20420;-75
2021/01/11 11:11:40;;;;;;;4.07;3.67;;;1.00;99.90;;;;;;4932118;28;20409;-74
2021/01/11 11:14:06;;;;;;;4.72;3.65;;;1.10;99.90;;;;;;4942603;28;20425;-75
2021/01/11 11:16:31;;;;;;;4.63;3.77;;;1.00;99.90;;;;;;4952713;28;20951;-74
2021/01/11 11:18:58;;;;;;;3.90;3.50;;;1.20;99.90;;;;;;4943258;28;20407;-74
2021/01/11 11:21:23;;;;;;;3.92;3.40;;;1.10;99.90;;;;;;4946284;28;20399;-75
2021/01/11 11:23:49;;;;;;;4.97;3.60;;;1.10;99.90;;;;;;4930679;29;20967;-75
2021/01/11 11:26:19;;;;;;;5.80;4.88;;;1.10;99.90;;;;;;4909849;29;20477;-74
2021/01/11 11:28:45;;;;;;;4.65;3.83;;;1.10;99.90;;;;;;4913991;29;20760;-74
2021/01/11 11:31:10;;;;;;;4.50;3.63;;;1.10;99.90;;;;;;4942283;28;20411;-73
2021/01/11 11:33:37;;;;;;;4.20;3.70;;;1.20;99.90;;;;;;4921701;28;20425;-73
2021/01/11 11:36:02;;;;;;;4.77;4.00;;;1.20;99.90;;;;;;4930436;28;21018;-74
2021/01/11 11:38:28;;;;;;;5.77;4.13;;;1.20;99.90;;;;;;4921873;29;20418;-77
2021/01/11 11:40:54;;;;;;;4.70;3.65;;;1.30;99.90;;;;;;4926569;29;21001;-74
2021/01/11 11:43:20;;;;;;;4.50;3.88;;;1.30;99.90;;;;;;4911039;29;20407;-73
2021/01/11 11:45:45;;;;;;;4.70;4.20;;;1.30;99.90;;;;;;4935474;28;20399;-76
2021/01/11 11:48:12;;;;;;;5.67;4.07;;;1.40;99.90;;;;;;4926865;28;20495;-74
2021/01/11 11:50:38;;;;;;;4.38;3.65;;;1.40;99.90;;;;;;4960006;28;20433;-74
2021/01/11 11:53:04;;;;;;;4.63;3.95;;;1.40;99.90;;;;;;4913409;29;20421;-73
2021/01/11 11:55:29;;;;;;;4.43;3.88;;;1.30;99.90;;;;;;4934999;29;20446;-73
2021/01/11 11:57:55;;;;;;;4.00;3.47;;;1.30;99.90;;;;;;4943568;28;20407;-75
2021/01/11 12:00:21;;;;;;;4.20;3.40;;;1.40;99.90;;;;;;4922307;28;20421;-74
2021/01/11 12:02:48;;;;;;;4.40;3.55;;;1.40;99.90;;;;;;4944560;28;20424;-74
2021/01/11 12:05:15;;;;;;;4.32;3.35;;;1.40;99.90;;;;;;4951082;28;20413;-73
2021/01/11 12:07:40;;;;;;;4.07;3.30;;;1.40;99.90;;;;;;4917159;29;20404;-78
2021/01/11 12:10:07;;;;;;;4.97;3.67;;;1.40;99.90;;;;;;4924817;29;20436;-75
2021/01/11 12:12:33;;;;;;;4.15;3.50;;;1.50;99.90;;;;;;4921035;29;20915;-74
2021/01/11 12:15:00;;;;;;;3.70;3.37;;;1.50;99.90;;;;;;4941002;28;20477;-73
2021/01/11 12:17:26;;;;;;;3.85;3.17;;;1.50;99.90;;;;;;4928843;28;20405;-74
2021/01/11 12:19:52;;;;;;;4.50;3.63;;;1.50;99.90;;;;;;4927658;29;20395;-74
2021/01/11 12:22:18;;;;;;;6.77;3.50;;;1.50;99.90;;;;;;4941453;29;20434;-73
2021/01/11 12:24:43;;;;;;;3.92;3.40;;;1.50;99.90;;;;;;4928077;28;20430;-74
2021/01/11 12:27:09;;;;;;;4.78;3.58;;;1.60;99.90;;;;;;4907574;28;20409;-73
2021/01/11 12:29:35;;;;;;;4.77;3.40;;;1.50;99.90;;;;;;4942126;28;20445;-72
2021/01/11 12:32:07;;;;;;;4.13;3.63;;;1.60;99.90;;;;;;4951453;28;20422;-74
2021/01/11 12:34:34;;;;;;;6.50;3.80;;;1.60;99.90;;;;;;4906908;29;20975;-74
2021/01/11 12:37:01;;;;;;;4.10;3.45;;;1.50;99.90;;;;;;4900645;29;20399;-74
2021/01/11 12:39:27;;;;;;;5.65;3.60;;;1.50;99.90;;;;;;4927925;29;20898;-75
2021/01/11 12:41:53;;;;;;;5.28;3.70;;;1.50;99.90;;;;;;4943768;29;20849;-74
2021/01/11 12:44:18;;;;;;;4.30;3.90;;;1.50;99.90;;;;;;4931166;29;20415;-77
2021/01/11 12:46:44;;;;;;;3.97;3.50;;;1.40;99.90;;;;;;4929473;28;20416;-74
2021/01/11 12:49:10;;;;;;;4.32;3.75;;;1.40;99.90;;;;;;4895142;29;20417;-75
2021/01/11 12:51:35;;;;;;;4.10;3.70;;;1.40;99.90;;;;;;4927776;28;20910;-74